createdAt,value
2017-03-23T17:09:06.948Z,14.45
2017-03-23T17:10:20.816Z,14.4
2017-03-23T17:11:34.224Z,14.34
2017-03-23T17:12:48.338Z,14.34
2017-03-23T17:14:03.491Z,14.28
2017-03-23T17:15:16.940Z,14.22
2017-03-23T17:16:30.871Z,14.15
2017-03-23T17:17:44.292Z,14.15
2017-03-23T17:18:58.284Z,14.19
2017-03-23T17:20:11.827Z,14.16
2017-03-23T17:21:26.136Z,14.15
2017-03-23T17:22:40.342Z,14.11
2017-03-23T17:23:54.278Z,14.13
2017-03-23T17:25:07.963Z,14.07
2017-03-23T17:26:21.785Z,13.97
2017-03-23T17:27:35.364Z,13.95
2017-03-23T17:28:49.700Z,13.89
2017-03-23T17:30:03.430Z,13.89
2017-03-23T17:31:17.196Z,13.93
2017-03-23T17:32:30.946Z,13.83
2017-03-23T17:33:44.439Z,13.89
2017-03-23T17:34:57.937Z,13.85
2017-03-23T17:36:51.148Z,13.89
2017-03-23T17:38:04.605Z,13.8
2017-03-23T17:39:18.283Z,13.7
2017-03-23T17:40:31.856Z,13.78
2017-03-23T17:41:45.322Z,13.75
2017-03-23T17:42:59.221Z,13.73
2017-03-23T17:44:15.113Z,13.73
2017-03-23T17:45:30.052Z,13.71
2017-03-23T17:46:43.409Z,13.68
2017-03-23T17:47:57.200Z,13.75
2017-03-23T17:49:10.771Z,13.65
2017-03-23T17:50:25.058Z,13.73
2017-03-23T17:51:39.217Z,13.68
2017-03-23T17:52:53.507Z,13.64
2017-03-23T17:54:06.945Z,13.61
2017-03-23T17:55:20.473Z,13.61
2017-03-23T17:56:34.521Z,13.58
2017-03-23T17:58:03.537Z,13.58
2017-03-23T17:59:17.045Z,13.58
2017-03-23T18:00:31.556Z,13.55
2017-03-23T18:01:45.300Z,13.54
2017-03-23T18:02:59.311Z,13.52
2017-03-23T18:04:13.084Z,13.46
2017-03-23T18:05:27.078Z,13.52
2017-03-23T18:06:41.801Z,13.49
2017-03-23T18:07:55.434Z,13.47
2017-03-23T18:09:09.599Z,13.45
2017-03-23T18:10:23.229Z,13.39
2017-03-23T18:11:38.126Z,13.42
2017-03-23T18:12:52.607Z,13.42
2017-03-23T18:14:06.043Z,13.27
2017-03-23T18:15:20.067Z,13.31
2017-03-23T18:16:33.977Z,13.24
2017-03-23T18:17:47.867Z,13.3
2017-03-23T18:19:01.329Z,13.33
2017-03-23T18:20:14.859Z,13.3
2017-03-23T18:21:28.340Z,13.24
2017-03-23T18:22:42.113Z,13.23
2017-03-23T18:23:55.860Z,13.24
2017-03-23T18:25:09.726Z,13.23
2017-03-23T18:26:23.133Z,13.2
2017-03-23T18:27:36.797Z,13.2
2017-03-23T18:28:50.291Z,13.19
2017-03-23T18:30:04.636Z,13.23
2017-03-23T18:31:18.220Z,13.19
2017-03-23T18:32:31.915Z,13.12
2017-03-23T18:33:45.395Z,13.13
2017-03-23T18:34:59.168Z,13.19
2017-03-23T18:36:12.856Z,13.13
2017-03-23T18:37:26.830Z,13.06
2017-03-23T18:38:40.557Z,13.05
2017-03-23T18:39:54.557Z,13.17
2017-03-23T18:41:09.849Z,13.16
2017-03-23T18:42:24.963Z,13.13
2017-03-23T18:43:39.355Z,13.06
2017-03-23T18:44:53.050Z,12.98
2017-03-23T18:46:06.874Z,13.09
2017-03-23T18:47:20.411Z,13.03
2017-03-23T18:48:34.260Z,13.06
2017-03-23T18:49:47.791Z,13.03
2017-03-23T18:51:01.326Z,12.93
2017-03-23T18:52:14.943Z,12.95
2017-03-23T18:53:28.511Z,13.03
2017-03-23T18:54:42.668Z,12.95
2017-03-23T18:55:56.587Z,12.91
2017-03-23T18:57:10.370Z,12.87
2017-03-23T18:58:23.821Z,12.88
2017-03-23T18:59:37.405Z,12.9
2017-03-23T19:00:53.656Z,12.84
2017-03-23T19:02:07.460Z,12.83
2017-03-23T19:03:20.902Z,12.84
2017-03-23T19:05:07.157Z,12.87
2017-03-23T19:06:20.851Z,12.81
2017-03-23T19:07:34.265Z,12.75
2017-03-23T19:08:48.234Z,12.7
2017-03-23T19:10:02.015Z,12.73
2017-03-23T19:11:15.914Z,12.66
2017-03-23T19:12:29.803Z,12.68
2017-03-23T19:13:43.539Z,12.66
2017-03-23T19:14:57.168Z,12.68
2017-03-23T19:16:11.134Z,12.7
2017-03-23T19:17:24.625Z,12.63
2017-03-23T19:18:38.516Z,12.62
2017-03-23T19:19:52.091Z,12.55
2017-03-23T19:21:05.618Z,12.58
2017-03-23T19:22:19.091Z,12.57
2017-03-23T19:23:33.255Z,12.54
2017-03-23T19:24:46.999Z,12.55
2017-03-23T19:26:01.174Z,12.47
2017-03-23T19:27:14.614Z,12.4
2017-03-23T19:28:28.691Z,12.43
2017-03-23T19:29:42.895Z,12.43
2017-03-23T19:30:57.894Z,12.48
2017-03-23T19:32:11.299Z,12.44
2017-03-23T19:33:24.874Z,12.45
2017-03-23T19:34:38.580Z,12.44
2017-03-23T19:35:52.283Z,12.43
2017-03-23T19:37:06.005Z,12.29
2017-03-23T19:38:19.679Z,12.4
2017-03-23T19:39:34.071Z,12.4
2017-03-23T19:40:47.961Z,12.29
2017-03-23T19:42:01.346Z,12.26
2017-03-23T19:43:16.099Z,12.28
2017-03-23T19:44:29.521Z,12.32
2017-03-23T19:45:43.470Z,12.26
2017-03-23T19:46:57.505Z,12.26
2017-03-23T19:48:11.704Z,12.23
2017-03-23T19:49:26.603Z,12.2
2017-03-23T19:50:40.457Z,12.17
2017-03-23T19:51:54.237Z,12.14
2017-03-23T19:53:08.180Z,12.23
2017-03-23T19:54:21.552Z,12.21
2017-03-23T19:55:35.696Z,12.15
2017-03-23T19:56:49.207Z,12.18
2017-03-23T19:58:03.065Z,12.1
2017-03-23T19:59:17.761Z,12.17
2017-03-23T20:00:32.076Z,12.18
2017-03-23T20:01:45.841Z,12.14
2017-03-23T20:02:59.449Z,12.14
2017-03-23T20:04:12.863Z,12.11
2017-03-23T20:05:27.890Z,12.1
2017-03-23T20:06:41.627Z,12.03
2017-03-23T20:07:56.636Z,12.03
2017-03-23T20:09:10.040Z,12
2017-03-23T20:10:23.639Z,12.05
2017-03-23T20:11:37.491Z,12.12
2017-03-23T20:12:51.048Z,12.05
2017-03-23T20:14:06.115Z,12.03
2017-03-23T20:15:19.743Z,11.97
2017-03-23T20:16:33.129Z,12.02
2017-03-23T20:17:49.216Z,12.12
2017-03-23T20:19:03.334Z,12.03
2017-03-23T20:20:17.380Z,12.02
2017-03-23T20:21:30.818Z,11.88
2017-03-23T20:22:45.854Z,11.89
2017-03-23T20:24:00.011Z,11.96
2017-03-23T20:25:13.761Z,11.88
2017-03-23T20:26:27.618Z,11.83
2017-03-23T20:27:41.709Z,11.95
2017-03-23T20:28:56.134Z,11.86
2017-03-23T20:30:09.969Z,11.74
2017-03-23T20:31:24.406Z,11.77
2017-03-23T20:32:38.252Z,11.83
2017-03-23T20:33:52.074Z,11.81
2017-03-23T20:35:05.644Z,11.71
2017-03-23T20:36:19.254Z,11.73
2017-03-23T20:37:33.220Z,11.74
2017-03-23T20:38:47.485Z,11.74
2017-03-23T20:40:01.347Z,11.73
2017-03-23T20:41:15.077Z,11.81
2017-03-23T20:42:29.227Z,11.68
2017-03-23T20:43:43.616Z,11.62
2017-03-23T20:44:58.151Z,11.7
2017-03-23T20:46:11.764Z,11.68
2017-03-23T20:47:26.198Z,11.71
2017-03-23T20:48:40.320Z,11.63
2017-03-23T20:49:53.819Z,11.56
2017-03-23T20:51:07.545Z,11.58
2017-03-23T20:52:21.480Z,11.6
2017-03-23T20:53:35.603Z,11.58
2017-03-23T20:54:49.182Z,11.63
2017-03-23T20:56:02.679Z,11.65
2017-03-23T20:57:17.053Z,11.52
2017-03-23T20:58:31.506Z,11.62
2017-03-23T20:59:45.176Z,11.56
2017-03-23T21:00:58.590Z,11.59
2017-03-23T21:02:12.455Z,11.59
2017-03-23T21:03:26.886Z,11.45
2017-03-23T21:04:41.847Z,11.44
2017-03-23T21:05:55.730Z,11.44
2017-03-23T21:07:09.258Z,11.45
2017-03-23T21:08:23.076Z,11.38
2017-03-23T21:11:50.696Z,11.26
2017-03-23T21:13:04.115Z,11.23
2017-03-23T21:14:18.313Z,11.3
2017-03-23T21:15:32.443Z,11.19
2017-03-23T21:16:46.522Z,11.15
2017-03-23T21:18:00.304Z,11.22
2017-03-23T21:19:14.228Z,11.18
2017-03-23T21:20:27.695Z,11.13
2017-03-23T21:21:42.192Z,11.15
2017-03-23T21:22:56.245Z,11.12
2017-03-23T21:24:10.100Z,11.1
2017-03-23T21:25:23.888Z,11.1
2017-03-23T21:26:38.391Z,11.01
2017-03-23T21:27:52.066Z,11.07
2017-03-23T21:29:05.731Z,10.97
2017-03-23T21:30:19.695Z,11.05
2017-03-23T21:31:33.218Z,11.02
2017-03-23T21:32:47.182Z,10.95
2017-03-23T21:34:01.112Z,11.01
2017-03-23T21:35:17.431Z,10.87
2017-03-23T21:36:31.564Z,10.86
2017-03-23T21:37:45.232Z,10.89
2017-03-23T21:38:59.126Z,10.83
2017-03-23T21:40:12.878Z,10.77
2017-03-23T21:41:27.124Z,10.83
2017-03-23T21:42:41.366Z,10.79
2017-03-23T21:43:56.638Z,10.8
2017-03-23T21:45:11.266Z,10.71
2017-03-23T21:46:26.310Z,10.69
2017-03-23T21:47:39.767Z,10.65
2017-03-23T21:48:53.356Z,10.64
2017-03-23T21:50:06.781Z,10.69
2017-03-23T21:51:20.668Z,10.67
2017-03-23T21:52:34.460Z,10.72
2017-03-23T21:53:48.294Z,10.62
2017-03-23T21:55:02.333Z,10.65
2017-03-23T21:56:15.838Z,10.64
2017-03-23T21:57:29.979Z,10.58
2017-03-23T21:58:44.056Z,10.61
2017-03-23T21:59:57.636Z,10.58
2017-03-23T22:01:13.374Z,10.57
2017-03-23T22:02:27.291Z,10.51
2017-03-23T22:03:40.976Z,10.49
2017-03-23T22:04:55.248Z,10.43
2017-03-23T22:06:09.640Z,10.38
2017-03-23T22:07:23.046Z,10.38
2017-03-23T22:08:37.438Z,10.39
2017-03-23T22:09:50.853Z,10.34
2017-03-23T22:11:04.654Z,10.34
2017-03-23T22:12:18.147Z,10.41
2017-03-23T22:13:32.140Z,10.38
2017-03-23T22:14:46.110Z,10.43
2017-03-23T22:16:00.036Z,10.27
2017-03-23T22:17:13.746Z,10.31
2017-03-23T22:18:27.486Z,10.33
2017-03-23T22:19:41.228Z,10.28
2017-03-23T22:20:54.759Z,10.23
2017-03-23T22:22:47.170Z,10.18
2017-03-23T22:24:01.348Z,10.21
2017-03-23T22:25:14.902Z,10.18
2017-03-23T22:26:29.047Z,10.24
2017-03-23T22:27:42.528Z,10.28
2017-03-23T22:28:56.788Z,10.15
2017-03-23T22:30:10.952Z,10.2
2017-03-23T22:31:24.552Z,10.12
2017-03-23T22:32:37.967Z,10.09
2017-03-23T22:33:51.525Z,10.03
2017-03-23T22:35:05.841Z,10.05
2017-03-23T22:36:19.731Z,10.03
2017-03-23T22:37:33.226Z,10.06
2017-03-23T22:38:47.105Z,10.09
2017-03-23T22:40:01.314Z,10
2017-03-23T22:41:15.285Z,10.06
2017-03-23T22:42:29.294Z,10.02
2017-03-23T22:43:42.839Z,10
2017-03-23T22:44:56.473Z,9.97
2017-03-23T22:46:10.073Z,10.02
2017-03-23T22:47:23.490Z,9.95
2017-03-23T22:48:38.202Z,9.97
2017-03-23T22:49:51.592Z,9.97
2017-03-23T22:51:05.222Z,9.94
2017-03-23T22:52:21.656Z,9.84
2017-03-23T22:53:35.537Z,9.82
2017-03-23T22:54:49.257Z,9.85
2017-03-23T22:56:02.961Z,9.8
2017-03-23T22:57:16.427Z,9.8
2017-03-23T22:58:30.376Z,9.8
2017-03-23T22:59:43.790Z,9.74
2017-03-23T23:00:57.609Z,9.8
2017-03-23T23:02:11.104Z,9.67
2017-03-23T23:03:24.738Z,9.63
2017-03-23T23:04:38.166Z,9.66
2017-03-23T23:05:52.077Z,9.69
2017-03-23T23:07:06.644Z,9.63
2017-03-23T23:08:20.270Z,9.56
2017-03-23T23:09:33.621Z,9.54
2017-03-23T23:10:47.766Z,9.56
2017-03-23T23:12:01.505Z,9.51
2017-03-23T23:13:15.373Z,9.48
2017-03-23T23:14:29.908Z,9.48
2017-03-23T23:15:45.175Z,9.48
2017-03-23T23:16:59.328Z,9.49
2017-03-23T23:18:14.571Z,9.44
2017-03-23T23:19:28.798Z,9.39
2017-03-23T23:20:42.882Z,9.47
2017-03-23T23:21:56.866Z,9.47
2017-03-23T23:23:10.375Z,9.42
2017-03-23T23:24:23.986Z,9.34
2017-03-23T23:25:37.938Z,9.31
2017-03-23T23:26:51.735Z,9.34
2017-03-23T23:28:07.105Z,9.36
2017-03-23T23:29:21.489Z,9.34
2017-03-23T23:30:35.720Z,9.39
2017-03-23T23:31:49.971Z,9.33
2017-03-23T23:33:03.708Z,9.3
2017-03-23T23:34:17.938Z,9.33
2017-03-23T23:35:32.623Z,9.36
2017-03-23T23:36:46.530Z,9.39
2017-03-23T23:38:00.945Z,9.39
2017-03-23T23:39:14.386Z,9.37
2017-03-23T23:40:48.568Z,9.33
2017-03-23T23:42:02.109Z,9.31
2017-03-23T23:43:15.884Z,9.34
2017-03-23T23:44:29.441Z,9.31
2017-03-23T23:45:42.792Z,9.34
2017-03-23T23:46:56.321Z,9.27
2017-03-23T23:48:10.003Z,9.26
2017-03-23T23:49:56.651Z,9.21
2017-03-23T23:51:10.795Z,9.24
2017-03-23T23:52:24.932Z,9.21
2017-03-23T23:53:38.990Z,9.15
2017-03-23T23:54:52.352Z,9.22
2017-03-23T23:56:06.130Z,9.12
2017-03-23T23:57:20.225Z,9.09
2017-03-23T23:58:42.977Z,9.12
2017-03-23T23:59:56.958Z,9.05
